sensor_id;sensor_type;location;lat;lon;timestamp;pressure;altitude;pressure_sealevel;temperature;humidity
69630;BME280;56857;52.212;5.496;2023-03-25T00:02:23;100124.81;;;9.43;100.00
69630;BME280;56857;52.212;5.496;2023-03-25T00:04:52;100121.53;;;9.41;100.00
69630;BME280;56857;52.212;5.496;2023-03-25T00:07:20;100121.69;;;9.39;100.00
69630;BME280;56857;52.212;5.496;2023-03-25T00:09:46;100126.97;;;9.39;100.00
69630;BME280;56857;52.212;5.496;2023-03-25T00:12:11;100128.81;;;9.39;100.00
69630;BME280;56857;52.212;5.496;2023-03-25T00:14:36;100139.22;;;9.40;100.00
69630;BME280;56857;52.212;5.496;2023-03-25T00:17:01;100131.63;;;9.37;100.00
69630;BME280;56857;52.212;5.496;2023-03-25T00:19:33;100129.00;;;9.37;100.00
69630;BME280;56857;52.212;5.496;2023-03-25T00:21:59;100125.69;;;9.35;100.00
69630;BME280;56857;52.212;5.496;2023-03-25T00:24:25;100126.50;;;9.36;100.00
69630;BME280;56857;52.212;5.496;2023-03-25T00:26:52;100117.75;;;9.35;100.00
69630;BME280;56857;52.212;5.496;2023-03-25T00:29:17;100124.06;;;9.34;100.00
69630;BME280;56857;52.212;5.496;2023-03-25T00:31:42;100117.13;;;9.33;100.00
69630;BME280;56857;52.212;5.496;2023-03-25T00:34:14;100114.84;;;9.30;100.00
69630;BME280;56857;52.212;5.496;2023-03-25T00:36:40;100111.56;;;9.28;100.00
69630;BME280;56857;52.212;5.496;2023-03-25T00:39:09;100125.78;;;9.27;100.00
69630;BME280;56857;52.212;5.496;2023-03-25T00:41:35;100125.78;;;9.27;100.00
69630;BME280;56857;52.212;5.496;2023-03-25T00:44:03;100126.75;;;9.26;100.00
69630;BME280;56857;52.212;5.496;2023-03-25T00:46:32;100126.59;;;9.27;100.00
69630;BME280;56857;52.212;5.496;2023-03-25T00:48:59;100126.75;;;9.26;100.00
69630;BME280;56857;52.212;5.496;2023-03-25T00:51:25;100133.06;;;9.25;100.00
69630;BME280;56857;52.212;5.496;2023-03-25T00:53:54;100115.56;;;9.24;100.00
69630;BME280;56857;52.212;5.496;2023-03-25T00:56:23;100124.31;;;9.24;100.00
69630;BME280;56857;52.212;5.496;2023-03-25T00:58:49;100121.00;;;9.22;100.00
69630;BME280;56857;52.212;5.496;2023-03-25T01:01:17;100127.94;;;9.23;100.00
69630;BME280;56857;52.212;5.496;2023-03-25T01:03:43;100119.19;;;9.23;100.00
69630;BME280;56857;52.212;5.496;2023-03-25T01:06:10;100121.22;;;9.21;100.00
69630;BME280;56857;52.212;5.496;2023-03-25T01:08:37;100113.28;;;9.21;100.00
69630;BME280;56857;52.212;5.496;2023-03-25T01:11:04;100104.50;;;9.20;100.00
69630;BME280;56857;52.212;5.496;2023-03-25T01:13:32;100109.78;;;9.20;100.00
69630;BME280;56857;52.212;5.496;2023-03-25T01:15:57;100116.06;;;9.19;100.00
69630;BME280;56857;52.212;5.496;2023-03-25T01:18:23;100112.63;;;9.19;100.00
69630;BME280;56857;52.212;5.496;2023-03-25T01:20:48;100120.72;;;9.17;100.00
69630;BME280;56857;52.212;5.496;2023-03-25T01:23:13;100119.91;;;9.17;100.00
69630;BME280;56857;52.212;5.496;2023-03-25T01:25:40;100113.78;;;9.16;100.00
69630;BME280;56857;52.212;5.496;2023-03-25T01:28:07;100111.97;;;9.17;100.00
69630;BME280;56857;52.212;5.496;2023-03-25T01:30:32;100111.16;;;9.16;100.00
69630;BME280;56857;52.212;5.496;2023-03-25T01:32:57;100116.44;;;9.16;100.00
69630;BME280;56857;52.212;5.496;2023-03-25T01:35:23;100117.44;;;9.15;100.00
69630;BME280;56857;52.212;5.496;2023-03-25T01:37:48;100106.88;;;9.15;100.00
69630;BME280;56857;52.212;5.496;2023-03-25T01:40:21;100107.69;;;9.16;100.00
69630;BME280;56857;52.212;5.496;2023-03-25T01:42:46;100112.16;;;9.15;100.00
69630;BME280;56857;52.212;5.496;2023-03-25T01:45:19;100108.84;;;9.13;100.00
69630;BME280;56857;52.212;5.496;2023-03-25T01:47:47;100103.56;;;9.13;100.00
69630;BME280;56857;52.212;5.496;2023-03-25T01:50:13;100114.16;;;9.13;100.00
69630;BME280;56857;52.212;5.496;2023-03-25T01:52:42;100109.41;;;9.09;100.00
69630;BME280;56857;52.212;5.496;2023-03-25T01:55:09;100117.03;;;9.03;100.00
69630;BME280;56857;52.212;5.496;2023-03-25T01:57:34;100107.34;;;8.96;100.00
69630;BME280;56857;52.212;5.496;2023-03-25T02:00:01;100109.69;;;8.91;100.00
69630;BME280;56857;52.212;5.496;2023-03-25T02:02:27;100106.59;;;8.87;100.00
69630;BME280;56857;52.212;5.496;2023-03-25T02:04:58;100108.09;;;8.81;100.00
69630;BME280;56857;52.212;5.496;2023-03-25T02:07:27;100097.88;;;8.78;100.00
69630;BME280;56857;52.212;5.496;2023-03-25T02:09:53;100096.94;;;8.71;100.00
69630;BME280;56857;52.212;5.496;2023-03-25T02:12:20;100113.16;;;8.68;100.00
69630;BME280;56857;52.212;5.496;2023-03-25T02:14:46;100106.59;;;8.64;100.00
69630;BME280;56857;52.212;5.496;2023-03-25T02:17:26;100104.28;;;8.61;100.00
69630;BME280;56857;52.212;5.496;2023-03-25T02:23:28;100082.84;;;8.56;100.00
69630;BME280;56857;52.212;5.496;2023-03-25T02:29:10;100087.47;;;8.54;100.00
69630;BME280;56857;52.212;5.496;2023-03-25T02:32:05;100098.88;;;8.54;100.00
69630;BME280;56857;52.212;5.496;2023-03-25T02:35:25;100086.03;;;8.51;100.00
69630;BME280;56857;52.212;5.496;2023-03-25T02:38:07;100089.81;;;8.49;100.00
69630;BME280;56857;52.212;5.496;2023-03-25T02:40:43;100086.38;;;8.48;100.00
69630;BME280;56857;52.212;5.496;2023-03-25T02:43:19;100089.16;;;8.47;100.00
69630;BME280;56857;52.212;5.496;2023-03-25T02:45:51;100091.81;;;8.47;100.00
69630;BME280;56857;52.212;5.496;2023-03-25T02:48:22;100097.09;;;8.47;100.00
69630;BME280;56857;52.212;5.496;2023-03-25T02:50:55;100090.00;;;8.47;100.00
69630;BME280;56857;52.212;5.496;2023-03-25T02:53:29;100080.44;;;8.46;100.00
69630;BME280;56857;52.212;5.496;2023-03-25T02:55:59;100091.00;;;8.46;100.00
69630;BME280;56857;52.212;5.496;2023-03-25T02:58:28;100095.47;;;8.46;100.00
69630;BME280;56857;52.212;5.496;2023-03-25T03:00:57;100090.19;;;8.46;100.00
69630;BME280;56857;52.212;5.496;2023-03-25T03:03:26;100087.53;;;8.46;100.00
69630;BME280;56857;52.212;5.496;2023-03-25T03:05:55;100084.88;;;8.46;100.00
69630;BME280;56857;52.212;5.496;2023-03-25T03:08:49;100077.13;;;8.44;100.00
69630;BME280;56857;52.212;5.496;2023-03-25T03:11:24;100075.16;;;8.46;100.00
69630;BME280;56857;52.212;5.496;2023-03-25T03:13:58;100074.13;;;8.47;100.00
69630;BME280;56857;52.212;5.496;2023-03-25T03:30:55;100083.72;;;8.48;100.00
69630;BME280;56857;52.212;5.496;2023-03-25T03:36:12;100078.44;;;8.48;100.00
69630;BME280;56857;52.212;5.496;2023-03-25T03:38:43;100072.50;;;8.46;100.00
69630;BME280;56857;52.212;5.496;2023-03-25T03:41:15;100068.22;;;8.45;100.00
69630;BME280;56857;52.212;5.496;2023-03-25T03:44:02;100077.13;;;8.44;100.00
69630;BME280;56857;52.212;5.496;2023-03-25T03:46:34;100071.22;;;8.42;100.00
69630;BME280;56857;52.212;5.496;2023-03-25T03:49:05;100069.91;;;8.38;100.00
69630;BME280;56857;52.212;5.496;2023-03-25T03:51:34;100066.59;;;8.36;100.00
69630;BME280;56857;52.212;5.496;2023-03-25T03:54:31;100072.22;;;8.33;100.00
69630;BME280;56857;52.212;5.496;2023-03-25T03:57:52;100068.09;;;8.30;100.00
69630;BME280;56857;52.212;5.496;2023-03-25T04:00:01;100076.19;;;8.29;100.00
69630;BME280;56857;52.212;5.496;2023-03-25T04:02:49;100077.03;;;8.29;100.00
69630;BME280;56857;52.212;5.496;2023-03-25T04:05:18;100065.47;;;8.30;100.00
69630;BME280;56857;52.212;5.496;2023-03-25T04:07:54;100061.19;;;8.29;100.00
69630;BME280;56857;52.212;5.496;2023-03-25T04:12:54;100065.81;;;8.27;100.00
69630;BME280;56857;52.212;5.496;2023-03-25T04:15:22;100077.53;;;8.25;100.00
69630;BME280;56857;52.212;5.496;2023-03-25T04:17:51;100077.06;;;8.21;100.00
69630;BME280;56857;52.212;5.496;2023-03-25T04:20:21;100064.22;;;8.18;100.00
69630;BME280;56857;52.212;5.496;2023-03-25T04:22:49;100064.22;;;8.18;100.00
69630;BME280;56857;52.212;5.496;2023-03-25T04:25:14;100058.09;;;8.18;100.00
69630;BME280;56857;52.212;5.496;2023-03-25T04:27:39;100067.66;;;8.19;100.00
69630;BME280;56857;52.212;5.496;2023-03-25T04:30:06;100069.16;;;8.21;100.00
69630;BME280;56857;52.212;5.496;2023-03-25T04:32:35;100073.41;;;8.22;100.00
69630;BME280;56857;52.212;5.496;2023-03-25T04:35:07;100067.50;;;8.20;100.00
69630;BME280;56857;52.212;5.496;2023-03-25T04:37:33;100071.44;;;8.24;100.00
69630;BME280;56857;52.212;5.496;2023-03-25T04:39:58;100061.34;;;8.28;100.00
69630;BME280;56857;52.212;5.496;2023-03-25T04:42:24;100072.03;;;8.34;100.00
69630;BME280;56857;52.212;5.496;2023-03-25T04:44:52;100064.13;;;8.34;100.00
69630;BME280;56857;52.212;5.496;2023-03-25T04:47:20;100070.88;;;8.37;100.00
69630;BME280;56857;52.212;5.496;2023-03-25T04:49:47;100072.53;;;8.38;100.00
69630;BME280;56857;52.212;5.496;2023-03-25T04:52:14;100078.97;;;8.35;100.00
69630;BME280;56857;52.212;5.496;2023-03-25T04:54:40;100079.34;;;8.32;100.00
69630;BME280;56857;52.212;5.496;2023-03-25T04:57:08;100066.47;;;8.29;100.00
69630;BME280;56857;52.212;5.496;2023-03-25T04:59:33;100063.34;;;8.26;100.00
69630;BME280;56857;52.212;5.496;2023-03-25T05:01:59;100056.28;;;8.18;100.00
69630;BME280;56857;52.212;5.496;2023-03-25T05:04:24;100069.50;;;8.10;100.00
69630;BME280;56857;52.212;5.496;2023-03-25T05:06:49;100071.03;;;8.04;100.00
69630;BME280;56857;52.212;5.496;2023-03-25T05:09:17;100068.28;;;7.98;100.00
69630;BME280;56857;52.212;5.496;2023-03-25T05:11:43;100069.44;;;7.95;100.00
69630;BME280;56857;52.212;5.496;2023-03-25T05:14:09;100059.22;;;7.92;100.00
69630;BME280;56857;52.212;5.496;2023-03-25T05:16:35;100058.41;;;7.92;100.00
69630;BME280;56857;52.212;5.496;2023-03-25T05:19:02;100057.75;;;7.89;100.00
69630;BME280;56857;52.212;5.496;2023-03-25T05:21:29;100065.00;;;7.87;100.00
69630;BME280;56857;52.212;5.496;2023-03-25T05:23:54;100064.34;;;7.85;100.00
69630;BME280;56857;52.212;5.496;2023-03-25T05:26:20;100067.16;;;7.84;100.00
69630;BME280;56857;52.212;5.496;2023-03-25T05:28:45;100065.53;;;7.83;100.00
69630;BME280;56857;52.212;5.496;2023-03-25T05:31:10;100069.78;;;7.84;100.00
69630;BME280;56857;52.212;5.496;2023-03-25T05:33:38;100077.72;;;7.84;100.00
69630;BME280;56857;52.212;5.496;2023-03-25T05:36:03;100083.81;;;7.84;100.00
69630;BME280;56857;52.212;5.496;2023-03-25T05:38:29;100086.28;;;7.86;100.00
69630;BME280;56857;52.212;5.496;2023-03-25T05:40:54;100085.28;;;7.87;100.00
69630;BME280;56857;52.212;5.496;2023-03-25T05:43:20;100083.31;;;7.89;100.00
69630;BME280;56857;52.212;5.496;2023-03-25T05:45:45;100089.41;;;7.89;100.00
69630;BME280;56857;52.212;5.496;2023-03-25T05:48:10;100086.59;;;7.91;100.00
69630;BME280;56857;52.212;5.496;2023-03-25T05:50:36;100084.78;;;7.92;100.00
69630;BME280;56857;52.212;5.496;2023-03-25T05:53:02;100097.97;;;7.92;100.00
69630;BME280;56857;52.212;5.496;2023-03-25T05:55:27;100096.16;;;7.92;100.00
69630;BME280;56857;52.212;5.496;2023-03-25T05:57:53;100098.63;;;7.94;100.00
69630;BME280;56857;52.212;5.496;2023-03-25T06:00:18;100099.44;;;7.94;100.00
69630;BME280;56857;52.212;5.496;2023-03-25T06:02:44;100084.44;;;7.95;100.00
69630;BME280;56857;52.212;5.496;2023-03-25T06:05:12;100100.28;;;7.95;100.00
69630;BME280;56857;52.212;5.496;2023-03-25T06:07:39;100098.47;;;7.95;100.00
69630;BME280;56857;52.212;5.496;2023-03-25T06:10:05;100109.84;;;7.96;100.00
69630;BME280;56857;52.212;5.496;2023-03-25T06:12:30;100108.84;;;7.97;100.00
69630;BME280;56857;52.212;5.496;2023-03-25T06:14:56;100115.59;;;7.99;100.00
69630;BME280;56857;52.212;5.496;2023-03-25T06:17:21;100111.78;;;8.02;100.00
69630;BME280;56857;52.212;5.496;2023-03-25T06:19:48;100111.13;;;8.00;100.00
69630;BME280;56857;52.212;5.496;2023-03-25T06:22:15;100111.13;;;8.00;100.00
69630;BME280;56857;52.212;5.496;2023-03-25T06:24:41;100113.63;;;8.01;100.00
69630;BME280;56857;52.212;5.496;2023-03-25T06:27:12;100106.34;;;8.03;100.00
69630;BME280;56857;52.212;5.496;2023-03-25T06:29:38;100115.56;;;8.07;100.00
69630;BME280;56857;52.212;5.496;2023-03-25T06:32:07;100106.47;;;8.10;100.00
69630;BME280;56857;52.212;5.496;2023-03-25T06:34:33;100102.84;;;8.11;100.00
69630;BME280;56857;52.212;5.496;2023-03-25T06:36:59;100112.72;;;8.17;100.00
69630;BME280;56857;52.212;5.496;2023-03-25T06:39:26;100117.66;;;8.20;100.00
69630;BME280;56857;52.212;5.496;2023-03-25T06:41:51;100120.59;;;8.25;100.00
69630;BME280;56857;52.212;5.496;2023-03-25T06:44:16;100124.25;;;8.24;100.00
69630;BME280;56857;52.212;5.496;2023-03-25T06:46:42;100122.13;;;8.20;100.00
69630;BME280;56857;52.212;5.496;2023-03-25T06:49:08;100122.81;;;8.13;100.00
69630;BME280;56857;52.212;5.496;2023-03-25T06:51:33;100124.31;;;8.08;100.00
69630;BME280;56857;52.212;5.496;2023-03-25T06:53:59;100133.53;;;8.04;100.00
69630;BME280;56857;52.212;5.496;2023-03-25T06:56:24;100133.06;;;8.00;100.00
69630;BME280;56857;52.212;5.496;2023-03-25T06:58:50;100127.97;;;7.99;100.00
69630;BME280;56857;52.212;5.496;2023-03-25T07:01:15;100129.78;;;7.98;100.00
69630;BME280;56857;52.212;5.496;2023-03-25T07:03:41;100127.50;;;7.95;100.00
69630;BME280;56857;52.212;5.496;2023-03-25T07:06:06;100123.19;;;7.94;100.00
69630;BME280;56857;52.212;5.496;2023-03-25T07:08:32;100124.03;;;7.95;100.00
69630;BME280;56857;52.212;5.496;2023-03-25T07:11:02;100134.75;;;7.93;100.00
69630;BME280;56857;52.212;5.496;2023-03-25T07:13:27;100125.81;;;7.94;100.00
69630;BME280;56857;52.212;5.496;2023-03-25T07:15:57;100130.94;;;7.96;100.00
69630;BME280;56857;52.212;5.496;2023-03-25T07:18:23;100127.31;;;7.97;100.00
69630;BME280;56857;52.212;5.496;2023-03-25T07:20:48;100124.66;;;7.97;100.00
69630;BME280;56857;52.212;5.496;2023-03-25T07:23:16;100124.34;;;8.00;100.00
69630;BME280;56857;52.212;5.496;2023-03-25T07:25:42;100134.88;;;8.00;100.00
69630;BME280;56857;52.212;5.496;2023-03-25T07:28:07;100136.38;;;8.02;100.00
69630;BME280;56857;52.212;5.496;2023-03-25T07:30:32;100140.50;;;8.05;100.00
69630;BME280;56857;52.212;5.496;2023-03-25T07:32:58;100145.44;;;8.08;100.00
69630;BME280;56857;52.212;5.496;2023-03-25T07:35:23;100141.78;;;8.09;100.00
69630;BME280;56857;52.212;5.496;2023-03-25T07:37:49;100145.25;;;8.09;100.00
69630;BME280;56857;52.212;5.496;2023-03-25T07:40:14;100139.97;;;8.09;100.00
69630;BME280;56857;52.212;5.496;2023-03-25T07:42:42;100154.84;;;8.10;100.00
69630;BME280;56857;52.212;5.496;2023-03-25T07:45:08;100152.34;;;8.17;100.00
69630;BME280;56857;52.212;5.496;2023-03-25T07:47:33;100146.38;;;8.23;100.00
69630;BME280;56857;52.212;5.496;2023-03-25T07:49:59;100150.78;;;8.31;100.00
69630;BME280;56857;52.212;5.496;2023-03-25T07:52:24;100151.59;;;8.31;100.00
69630;BME280;56857;52.212;5.496;2023-03-25T07:54:49;100151.25;;;8.34;100.00
69630;BME280;56857;52.212;5.496;2023-03-25T07:57:15;100146.97;;;8.33;100.00
69630;BME280;56857;52.212;5.496;2023-03-25T07:59:40;100157.06;;;8.30;100.00
69630;BME280;56857;52.212;5.496;2023-03-25T08:02:06;100160.69;;;8.29;100.00
69630;BME280;56857;52.212;5.496;2023-03-25T08:04:31;100159.88;;;8.28;100.00
69630;BME280;56857;52.212;5.496;2023-03-25T08:06:56;100147.47;;;8.29;100.00
69630;BME280;56857;52.212;5.496;2023-03-25T08:09:22;100150.97;;;8.29;100.00
69630;BME280;56857;52.212;5.496;2023-03-25T08:11:48;100161.19;;;8.32;100.00
69630;BME280;56857;52.212;5.496;2023-03-25T08:14:13;100167.28;;;8.33;100.00
69630;BME280;56857;52.212;5.496;2023-03-25T08:16:39;100163.84;;;8.32;100.00
69630;BME280;56857;52.212;5.496;2023-03-25T08:19:04;100165.47;;;8.33;100.00
69630;BME280;56857;52.212;5.496;2023-03-25T08:21:30;100166.28;;;8.34;100.00
69630;BME280;56857;52.212;5.496;2023-03-25T08:23:56;100167.09;;;8.34;100.00
69630;BME280;56857;52.212;5.496;2023-03-25T08:26:21;100168.78;;;8.35;100.00
69630;BME280;56857;52.212;5.496;2023-03-25T08:28:47;100172.91;;;8.38;100.00
69630;BME280;56857;52.212;5.496;2023-03-25T08:31:12;100159.00;;;8.44;100.00
69630;BME280;56857;52.212;5.496;2023-03-25T08:33:37;100172.69;;;8.48;100.00
69630;BME280;56857;52.212;5.496;2023-03-25T08:36:03;100174.81;;;8.52;100.00
69630;BME280;56857;52.212;5.496;2023-03-25T08:38:29;100174.81;;;8.52;100.00
69630;BME280;56857;52.212;5.496;2023-03-25T08:40:54;100179.91;;;8.54;100.00
69630;BME280;56857;52.212;5.496;2023-03-25T08:43:19;100175.66;;;8.53;100.00
69630;BME280;56857;52.212;5.496;2023-03-25T08:45:45;100174.47;;;8.55;100.00
69630;BME280;56857;52.212;5.496;2023-03-25T08:48:10;100177.59;;;8.59;100.00
69630;BME280;56857;52.212;5.496;2023-03-25T08:50:35;100179.91;;;8.62;100.00
69630;BME280;56857;52.212;5.496;2023-03-25T08:53:00;100178.88;;;8.63;100.00
69630;BME280;56857;52.212;5.496;2023-03-25T08:55:26;100184.03;;;8.65;100.00
69630;BME280;56857;52.212;5.496;2023-03-25T08:57:51;100185.66;;;8.66;100.00
69630;BME280;56857;52.212;5.496;2023-03-25T09:00:20;100189.59;;;8.70;100.00
69630;BME280;56857;52.212;5.496;2023-03-25T09:02:45;100176.69;;;8.75;100.00
69630;BME280;56857;52.212;5.496;2023-03-25T09:05:12;100174.53;;;8.78;100.00
69630;BME280;56857;52.212;5.496;2023-03-25T09:07:38;100184.41;;;8.85;100.00
69630;BME280;56857;52.212;5.496;2023-03-25T09:10:04;100184.53;;;8.91;100.00
69630;BME280;56857;52.212;5.496;2023-03-25T09:12:30;100187.28;;;8.98;100.00
69630;BME280;56857;52.212;5.496;2023-03-25T09:14:55;100176.66;;;9.06;100.00
69630;BME280;56857;52.212;5.496;2023-03-25T09:17:20;100174.97;;;9.13;100.00
69630;BME280;56857;52.212;5.496;2023-03-25T09:19:46;100178.72;;;9.19;100.00
69630;BME280;56857;52.212;5.496;2023-03-25T09:22:11;100172.06;;;9.23;100.00
69630;BME280;56857;52.212;5.496;2023-03-25T09:24:36;100181.69;;;9.24;100.00
69630;BME280;56857;52.212;5.496;2023-03-25T09:27:02;100177.84;;;9.26;100.00
69630;BME280;56857;52.212;5.496;2023-03-25T09:29:28;100185.59;;;9.28;100.00
69630;BME280;56857;52.212;5.496;2023-03-25T09:31:54;100180.63;;;9.33;100.00
69630;BME280;56857;52.212;5.496;2023-03-25T09:34:19;100197.22;;;9.42;100.00
69630;BME280;56857;52.212;5.496;2023-03-25T09:36:47;100195.81;;;9.54;100.00
69630;BME280;56857;52.212;5.496;2023-03-25T09:39:13;100192.44;;;9.60;100.00
69630;BME280;56857;52.212;5.496;2023-03-25T09:46:55;100195.94;;;9.75;100.00
69630;BME280;56857;52.212;5.496;2023-03-25T09:49:25;100196.59;;;9.78;100.00
69630;BME280;56857;52.212;5.496;2023-03-25T09:51:54;100194.78;;;9.78;100.00
69630;BME280;56857;52.212;5.496;2023-03-25T09:54:31;100211.00;;;9.75;100.00
69630;BME280;56857;52.212;5.496;2023-03-25T09:57:08;100203.25;;;9.73;100.00
69630;BME280;56857;52.212;5.496;2023-03-25T09:59:53;100199.16;;;9.71;100.00
69630;BME280;56857;52.212;5.496;2023-03-25T10:05:20;100204.44;;;9.71;100.00
69630;BME280;56857;52.212;5.496;2023-03-25T10:07:54;100211.53;;;9.70;100.00
69630;BME280;56857;52.212;5.496;2023-03-25T10:13:19;100210.44;;;9.65;100.00
69630;BME280;56857;52.212;5.496;2023-03-25T10:19:03;100217.69;;;9.71;100.00
69630;BME280;56857;52.212;5.496;2023-03-25T10:22:04;100208.94;;;9.85;100.00
69630;BME280;56857;52.212;5.496;2023-03-25T10:24:37;100219.72;;;9.98;100.00
69630;BME280;56857;52.212;5.496;2023-03-25T10:27:18;100216.19;;;10.06;100.00
69630;BME280;56857;52.212;5.496;2023-03-25T10:29:55;100218.09;;;10.12;100.00
69630;BME280;56857;52.212;5.496;2023-03-25T10:32:33;100211.59;;;10.15;100.00
69630;BME280;56857;52.212;5.496;2023-03-25T10:34:59;100226.31;;;10.17;100.00
69630;BME280;56857;52.212;5.496;2023-03-25T10:37:35;100219.38;;;10.16;100.00
69630;BME280;56857;52.212;5.496;2023-03-25T10:40:35;100218.38;;;10.17;100.00
69630;BME280;56857;52.212;5.496;2023-03-25T10:43:19;100222.31;;;10.21;100.00
69630;BME280;56857;52.212;5.496;2023-03-25T10:45:48;100214.81;;;10.25;100.00
69630;BME280;56857;52.212;5.496;2023-03-25T10:48:20;100209.34;;;10.27;100.00
69630;BME280;56857;52.212;5.496;2023-03-25T10:50:48;100214.00;;;10.25;100.00
69630;BME280;56857;52.212;5.496;2023-03-25T10:53:22;100218.00;;;10.20;100.00
69630;BME280;56857;52.212;5.496;2023-03-25T10:55:53;100229.78;;;10.18;100.00
69630;BME280;56857;52.212;5.496;2023-03-25T10:58:21;100222.19;;;10.15;100.00
69630;BME280;56857;52.212;5.496;2023-03-25T11:00:51;100230.34;;;10.13;100.00
69630;BME280;56857;52.212;5.496;2023-03-25T11:03:26;100226.41;;;10.09;100.00
69630;BME280;56857;52.212;5.496;2023-03-25T11:05:54;100221.94;;;10.10;100.00
69630;BME280;56857;52.212;5.496;2023-03-25T11:08:20;100223.75;;;10.09;100.00
69630;BME280;56857;52.212;5.496;2023-03-25T11:10:53;100221.84;;;10.03;100.00
69630;BME280;56857;52.212;5.496;2023-03-25T11:13:23;100236.53;;;10.06;100.00
69630;BME280;56857;52.212;5.496;2023-03-25T11:15:51;100233.34;;;10.10;100.00
69630;BME280;56857;52.212;5.496;2023-03-25T11:21:12;100236.19;;;10.24;100.00
69630;BME280;56857;52.212;5.496;2023-03-25T11:23:46;100249.41;;;10.24;100.00
69630;BME280;56857;52.212;5.496;2023-03-25T11:26:27;100228.34;;;10.15;100.00
69630;BME280;56857;52.212;5.496;2023-03-25T11:29:15;100244.38;;;10.14;100.00
69630;BME280;56857;52.212;5.496;2023-03-25T11:31:40;100249.63;;;10.37;100.00
69630;BME280;56857;52.212;5.496;2023-03-25T11:37:00;100229.72;;;10.71;100.00
69630;BME280;56857;52.212;5.496;2023-03-25T11:39:38;100246.06;;;10.74;100.00
69630;BME280;56857;52.212;5.496;2023-03-25T11:44:50;100240.66;;;10.82;100.00
69630;BME280;56857;52.212;5.496;2023-03-25T11:47:25;100247.94;;;11.10;100.00
69630;BME280;56857;52.212;5.496;2023-03-25T11:49:53;100237.91;;;11.27;100.00
69630;BME280;56857;52.212;5.496;2023-03-25T11:52:43;100247.94;;;11.31;100.00
69630;BME280;56857;52.212;5.496;2023-03-25T11:55:23;100226.69;;;11.31;100.00
69630;BME280;56857;52.212;5.496;2023-03-25T11:57:52;100242.44;;;11.33;100.00
69630;BME280;56857;52.212;5.496;2023-03-25T12:05:25;100227.66;;;11.24;100.00
69630;BME280;56857;52.212;5.496;2023-03-25T12:08:00;100227.16;;;11.13;100.00
69630;BME280;56857;52.212;5.496;2023-03-25T12:10:46;100243.16;;;11.05;100.00
69630;BME280;56857;52.212;5.496;2023-03-25T12:30:07;100236.13;;;10.32;100.00
69630;BME280;56857;52.212;5.496;2023-03-25T12:36:02;100240.34;;;10.41;100.00
69630;BME280;56857;52.212;5.496;2023-03-25T12:41:06;100238.31;;;10.58;100.00
69630;BME280;56857;52.212;5.496;2023-03-25T12:52:36;100237.22;;;10.52;100.00
69630;BME280;56857;52.212;5.496;2023-03-25T13:00:36;100229.25;;;10.82;100.00
69630;BME280;56857;52.212;5.496;2023-03-25T13:06:06;100216.06;;;11.74;100.00
69630;BME280;56857;52.212;5.496;2023-03-25T13:08:44;100230.03;;;11.83;100.00
69630;BME280;56857;52.212;5.496;2023-03-25T13:11:38;100230.59;;;11.78;100.00
69630;BME280;56857;52.212;5.496;2023-03-25T13:14:55;100228.75;;;11.79;100.00
69630;BME280;56857;52.212;5.496;2023-03-25T13:17:14;100242.69;;;11.81;100.00
69630;BME280;56857;52.212;5.496;2023-03-25T13:19:42;100247.34;;;11.79;100.00
69630;BME280;56857;52.212;5.496;2023-03-25T13:22:23;100234.91;;;11.79;100.00
69630;BME280;56857;52.212;5.496;2023-03-25T13:25:01;100243.47;;;12.03;100.00
69630;BME280;56857;52.212;5.496;2023-03-25T13:27:38;100245.31;;;12.02;100.00
69630;BME280;56857;52.212;5.496;2023-03-25T13:30:11;100239.31;;;11.94;100.00
69630;BME280;56857;52.212;5.496;2023-03-25T13:32:45;100252.91;;;11.84;100.00
69630;BME280;56857;52.212;5.496;2023-03-25T13:35:21;100247.47;;;11.86;100.00
69630;BME280;56857;52.212;5.496;2023-03-25T13:37:52;100253.63;;;11.93;100.00
69630;BME280;56857;52.212;5.496;2023-03-25T13:40:43;100257.78;;;12.02;100.00
69630;BME280;56857;52.212;5.496;2023-03-25T13:49:11;100245.66;;;11.71;100.00
69630;BME280;56857;52.212;5.496;2023-03-25T13:51:39;100258.38;;;11.54;100.00
69630;BME280;56857;52.212;5.496;2023-03-25T14:10:53;100289.94;;;11.28;100.00
69630;BME280;56857;52.212;5.496;2023-03-25T14:13:31;100304.97;;;11.21;100.00
69630;BME280;56857;52.212;5.496;2023-03-25T14:16:06;100305.63;;;11.08;100.00
69630;BME280;56857;52.212;5.496;2023-03-25T14:18:43;100312.34;;;10.89;100.00
69630;BME280;56857;52.212;5.496;2023-03-25T14:21:21;100317.03;;;10.72;100.00
69630;BME280;56857;52.212;5.496;2023-03-25T14:24:01;100307.88;;;10.60;100.00
69630;BME280;56857;52.212;5.496;2023-03-25T14:26:27;100326.34;;;10.53;100.00
69630;BME280;56857;52.212;5.496;2023-03-25T14:28:54;100309.78;;;10.51;100.00
69630;BME280;56857;52.212;5.496;2023-03-25T14:31:30;100321.50;;;10.57;100.00
69630;BME280;56857;52.212;5.496;2023-03-25T14:44:37;100318.28;;;10.91;100.00
69630;BME280;56857;52.212;5.496;2023-03-25T14:50:40;100313.88;;;10.98;100.00
69630;BME280;56857;52.212;5.496;2023-03-25T14:52:51;100320.81;;;10.99;100.00
69630;BME280;56857;52.212;5.496;2023-03-25T14:55:25;100309.41;;;10.99;100.00
69630;BME280;56857;52.212;5.496;2023-03-25T14:57:57;100324.94;;;11.02;100.00
69630;BME280;56857;52.212;5.496;2023-03-25T15:00:28;100315.53;;;10.99;100.00
69630;BME280;56857;52.212;5.496;2023-03-25T15:03:03;100334.44;;;10.96;100.00
69630;BME280;56857;52.212;5.496;2023-03-25T15:05:32;100333.72;;;10.87;100.00
69630;BME280;56857;52.212;5.496;2023-03-25T15:10:40;100353.56;;;10.62;100.00
69630;BME280;56857;52.212;5.496;2023-03-25T15:15:52;100326.66;;;10.35;100.00
69630;BME280;56857;52.212;5.496;2023-03-25T15:23:43;100426.91;;;10.01;100.00